Terminal Aerodrome Forecast
Issued by NWS Wilmington, OH

Current Version | Previous Version | Graphics & Text | Print | Product List | Glossary On
Versions: 1 2 3 4 5 6 7 8 9 10 11 12 13 14 15 16 17 18 19 20 21 22
000
FTUS41 KILN 211400 AAA
TAFCVG
TAF AMD
KCVG 211405Z 2114/2218 35008KT P6SM OVC050
      TEMPO 2114/2116 BKN025
     FM211700 33008KT P6SM BKN035
     FM212200 31010KT P6SM SCT040
     FM220500 25004KT P6SM FEW040=

USA.gov is the U.S. government's official web portal to all federal, state and local government web resources and services.